Terminal Aerodrome Forecast
Issued by NWS Rapid City, SD

Home | Current Version | Previous Version | Text Only | Print | Product List | Glossary Off
Versions: 1 2 3 4 5 6 7 8 9 10 11 12 13 14 15 16 17

000
FTUS43 KUNR 300520
TAFRAP
TAF
KRAP 300520Z 3006/0106 28005KT P6SM BKN250
     FM301100 35007KT P6SM SCT150 BKN250
     FM301700 10009KT P6SM BKN150
     FM302200 02009KT P6SM SCT100=

USA.gov is the U.S. government's official web portal to all federal, state and local government web resources and services.